createdAt,value
2023-02-19T00:01:54.821Z,77.69
2023-02-19T00:04:23.841Z,77.10
2023-02-19T00:06:52.187Z,76.83
2023-02-19T00:09:21.651Z,76.69
2023-02-19T00:11:50.479Z,76.24
2023-02-19T00:14:21.453Z,76.45
2023-02-19T00:16:50.219Z,76.29
2023-02-19T00:19:20.727Z,76.28
2023-02-19T00:21:52.713Z,75.99
2023-02-19T00:24:21.820Z,76.06
2023-02-19T00:26:49.989Z,75.89
2023-02-19T00:29:21.646Z,75.85
2023-02-19T00:31:49.997Z,75.69
2023-02-19T00:34:18.353Z,75.84
2023-02-19T00:36:46.568Z,75.82
2023-02-19T00:39:18.531Z,75.86
2023-02-19T00:41:47.831Z,75.77
2023-02-19T00:44:16.261Z,75.59
2023-02-19T00:46:47.564Z,75.30
2023-02-19T00:49:22.629Z,75.23
2023-02-19T00:51:52.578Z,75.17
2023-02-19T00:54:22.788Z,75.00
2023-02-19T00:56:51.549Z,75.27
2023-02-19T00:59:20.052Z,75.41
2023-02-19T01:01:49.914Z,75.46
2023-02-19T01:04:19.165Z,75.94
2023-02-19T01:06:48.976Z,76.19
2023-02-19T01:09:17.373Z,75.92
2023-02-19T01:11:45.800Z,76.11
2023-02-19T01:14:13.953Z,76.21
2023-02-19T01:16:42.152Z,76.21
2023-02-19T01:19:10.353Z,76.60
2023-02-19T01:21:39.953Z,76.78
2023-02-19T01:24:11.050Z,76.93
2023-02-19T01:26:39.204Z,77.04
2023-02-19T01:29:07.307Z,76.96
2023-02-19T01:31:36.829Z,77.47
2023-02-19T01:34:05.067Z,77.45
2023-02-19T01:36:34.374Z,77.55
2023-02-19T01:39:05.297Z,77.51
2023-02-19T01:41:36.731Z,77.58
2023-02-19T01:44:11.388Z,77.72
2023-02-19T01:46:41.824Z,77.65
2023-02-19T01:49:15.640Z,77.56
2023-02-19T01:51:50.583Z,77.62
2023-02-19T01:54:22.756Z,77.60
2023-02-19T01:56:51.584Z,77.33
2023-02-19T01:59:20.294Z,77.41
2023-02-19T02:01:49.386Z,77.43
2023-02-19T02:04:19.015Z,77.38
2023-02-19T02:06:56.517Z,77.50
2023-02-19T02:09:47.303Z,77.36
2023-02-19T02:12:16.099Z,77.57
2023-02-19T02:14:47.814Z,77.45
2023-02-19T02:17:27.081Z,77.28
2023-02-19T02:20:14.110Z,77.25
2023-02-19T02:22:49.752Z,77.12
2023-02-19T02:25:41.157Z,76.92
2023-02-19T02:28:26.597Z,76.87
2023-02-19T02:30:58.369Z,76.85
2023-02-19T02:33:33.353Z,77.21
2023-02-19T02:36:14.332Z,77.22
2023-02-19T02:38:45.349Z,77.09
2023-02-19T02:41:15.634Z,77.04
2023-02-19T02:43:43.885Z,76.98
2023-02-19T02:46:19.081Z,76.94
2023-02-19T02:48:57.917Z,76.74
2023-02-19T02:51:30.772Z,76.78
2023-02-19T02:54:34.845Z,76.73
2023-02-19T02:57:09.749Z,77.00
2023-02-19T02:59:43.192Z,77.08
2023-02-19T03:02:22.907Z,77.26
2023-02-19T03:05:28.005Z,77.54
2023-02-19T03:08:12.592Z,77.60
2023-02-19T03:10:46.867Z,77.45
2023-02-19T03:13:41.022Z,77.54
2023-02-19T03:16:35.918Z,77.32
2023-02-19T03:19:20.788Z,77.23
2023-02-19T03:22:00.784Z,77.21
2023-02-19T03:25:00.133Z,77.47
2023-02-19T03:27:32.202Z,77.59
2023-02-19T03:30:05.683Z,78.01
2023-02-19T03:32:40.849Z,78.12
2023-02-19T03:35:21.094Z,78.38
2023-02-19T03:38:01.843Z,78.69
2023-02-19T03:40:34.711Z,78.64
2023-02-19T03:43:21.638Z,78.53
2023-02-19T03:46:25.652Z,78.56
2023-02-19T03:49:23.826Z,78.38
2023-02-19T03:52:10.850Z,78.35
2023-02-19T03:55:02.829Z,78.59
2023-02-19T03:57:39.136Z,78.49
2023-02-19T04:00:25.031Z,78.59
2023-02-19T04:02:59.268Z,78.72
2023-02-19T04:05:29.593Z,78.39
2023-02-19T04:08:05.113Z,78.47
2023-02-19T04:10:38.580Z,78.51
2023-02-19T04:13:15.360Z,78.67
2023-02-19T04:15:46.236Z,79.03
2023-02-19T04:18:25.855Z,79.07
2023-02-19T04:20:54.372Z,79.12
2023-02-19T04:23:27.229Z,78.78
2023-02-19T04:25:59.217Z,78.86
2023-02-19T04:28:29.410Z,79.23
2023-02-19T04:30:57.628Z,79.07
2023-02-19T04:33:25.828Z,78.72
2023-02-19T04:35:53.937Z,78.51
2023-02-19T04:38:21.975Z,78.57
2023-02-19T04:40:51.624Z,78.66
2023-02-19T04:43:20.635Z,78.50
2023-02-19T04:45:48.803Z,78.64
2023-02-19T04:48:17.126Z,78.46
2023-02-19T04:50:45.233Z,78.58
2023-02-19T04:53:13.461Z,78.77
2023-02-19T04:55:41.599Z,79.16
2023-02-19T04:58:09.701Z,79.35
2023-02-19T05:00:37.788Z,79.16
2023-02-19T05:03:05.881Z,79.26
2023-02-19T05:05:35.566Z,78.97
2023-02-19T05:08:03.803Z,78.63
2023-02-19T05:10:33.808Z,78.69
2023-02-19T05:13:02.070Z,78.64
2023-02-19T05:15:30.318Z,78.67
2023-02-19T05:17:58.671Z,78.34
2023-02-19T05:20:26.889Z,78.47
2023-02-19T05:22:55.189Z,78.52
2023-02-19T05:25:23.325Z,78.70
2023-02-19T05:28:11.433Z,78.77
2023-02-19T05:30:39.591Z,79.07
2023-02-19T05:33:07.928Z,79.03
2023-02-19T05:35:41.847Z,78.96
2023-02-19T05:38:11.028Z,78.75
2023-02-19T05:40:39.712Z,78.75
2023-02-19T05:43:08.402Z,78.90
2023-02-19T05:45:36.909Z,78.91
2023-02-19T05:48:06.599Z,79.03
2023-02-19T05:50:39.453Z,78.80
2023-02-19T05:53:13.797Z,78.79
2023-02-19T05:55:41.971Z,77.50
2023-02-19T05:58:10.198Z,75.29
2023-02-19T06:00:38.420Z,73.85
2023-02-19T06:03:06.596Z,72.00
2023-02-19T06:05:34.673Z,72.12
2023-02-19T06:08:02.849Z,72.28
2023-02-19T06:10:30.979Z,72.10
2023-02-19T06:12:59.444Z,73.12
2023-02-19T06:15:27.592Z,73.28
2023-02-19T06:17:55.842Z,73.02
2023-02-19T06:20:25.457Z,72.76
2023-02-19T06:22:54.842Z,72.83
2023-02-19T06:25:22.989Z,73.25
2023-02-19T06:27:51.278Z,73.17
2023-02-19T06:30:19.634Z,73.28
2023-02-19T06:32:47.799Z,73.43
2023-02-19T06:35:16.014Z,73.71
2023-02-19T06:37:46.896Z,73.67
2023-02-19T06:40:15.753Z,73.52
2023-02-19T06:42:43.935Z,73.44
2023-02-19T06:45:12.143Z,72.78
2023-02-19T06:47:40.411Z,73.07
2023-02-19T06:50:08.619Z,72.67
2023-02-19T06:52:36.814Z,72.58
2023-02-19T06:55:05.202Z,72.54
2023-02-19T06:57:33.204Z,71.84
2023-02-19T07:00:01.416Z,71.85
2023-02-19T07:02:29.521Z,71.81
2023-02-19T07:04:57.668Z,71.84
2023-02-19T07:07:25.740Z,71.72
2023-02-19T07:09:53.955Z,71.66
2023-02-19T07:12:22.120Z,71.42
2023-02-19T07:14:50.365Z,71.32
2023-02-19T07:17:18.660Z,70.95
2023-02-19T07:19:46.854Z,70.34
2023-02-19T07:22:15.107Z,70.42
2023-02-19T07:24:43.315Z,70.47
2023-02-19T07:27:11.512Z,70.46
2023-02-19T07:29:39.657Z,69.93
2023-02-19T07:32:07.979Z,70.07
2023-02-19T07:34:36.600Z,69.62
2023-02-19T07:37:04.805Z,69.21
2023-02-19T07:39:32.965Z,68.94
2023-02-19T07:42:01.176Z,67.72
2023-02-19T07:44:29.369Z,66.53
2023-02-19T07:46:57.449Z,64.70
2023-02-19T07:49:25.613Z,62.86
2023-02-19T07:51:53.851Z,61.98
2023-02-19T07:54:22.181Z,61.14
2023-02-19T07:56:50.537Z,61.34
2023-02-19T07:59:21.673Z,59.18
2023-02-19T08:02:08.625Z,56.57
2023-02-19T08:04:36.742Z,56.12
2023-02-19T08:07:05.543Z,54.25
2023-02-19T08:09:33.812Z,51.31
2023-02-19T08:12:20.544Z,49.95
2023-02-19T08:14:48.856Z,44.58
2023-02-19T08:17:17.016Z,42.55
2023-02-19T08:19:45.266Z,41.99
2023-02-19T08:22:16.376Z,42.68
2023-02-19T08:24:45.214Z,41.74
2023-02-19T08:27:13.486Z,40.32
2023-02-19T08:29:41.972Z,39.53
2023-02-19T08:32:10.412Z,39.46
2023-02-19T08:34:38.520Z,39.94
2023-02-19T08:37:06.579Z,39.52
2023-02-19T08:39:34.799Z,40.07
2023-02-19T08:42:03.054Z,38.81
2023-02-19T08:44:32.919Z,39.64
2023-02-19T08:47:02.579Z,39.04
2023-02-19T08:49:30.964Z,39.38
2023-02-19T08:51:59.284Z,38.81
2023-02-19T08:54:27.364Z,39.74
2023-02-19T08:56:55.532Z,40.02
2023-02-19T08:59:23.925Z,40.44
2023-02-19T09:01:53.140Z,41.33
2023-02-19T09:04:21.246Z,41.84
2023-02-19T09:06:49.458Z,41.53
2023-02-19T09:09:17.797Z,41.43
2023-02-19T09:11:47.413Z,40.96
2023-02-19T09:14:17.202Z,40.45
2023-02-19T09:16:45.430Z,40.52
2023-02-19T09:19:13.664Z,39.49
2023-02-19T09:21:43.492Z,39.38
2023-02-19T09:24:11.736Z,39.49
2023-02-19T09:26:39.838Z,39.29
2023-02-19T09:29:08.060Z,39.08
2023-02-19T09:31:36.406Z,39.34
2023-02-19T09:34:06.162Z,39.93
2023-02-19T09:36:34.687Z,40.79
2023-02-19T09:39:04.645Z,41.31
2023-02-19T09:41:36.152Z,41.05
2023-02-19T09:44:07.638Z,41.38
2023-02-19T09:46:50.066Z,42.39
2023-02-19T09:49:27.135Z,42.40
2023-02-19T09:52:20.342Z,42.50
2023-02-19T09:54:48.795Z,41.82
2023-02-19T09:57:20.657Z,41.56
2023-02-19T09:59:57.288Z,41.20
2023-02-19T10:02:27.588Z,40.20
2023-02-19T10:04:56.037Z,40.19
2023-02-19T10:07:43.930Z,40.05
2023-02-19T10:10:15.135Z,40.86
2023-02-19T10:12:50.598Z,40.90
2023-02-19T10:15:46.968Z,40.42
2023-02-19T10:18:24.818Z,40.57
2023-02-19T10:20:53.446Z,41.03
2023-02-19T10:23:22.477Z,41.23
2023-02-19T10:25:59.701Z,41.65
2023-02-19T10:28:30.828Z,41.99
2023-02-19T10:31:01.717Z,42.42
2023-02-19T10:33:29.988Z,42.28
2023-02-19T10:36:01.938Z,41.54
2023-02-19T10:38:48.730Z,40.46
2023-02-19T10:41:23.242Z,39.30
2023-02-19T10:43:57.843Z,39.33
2023-02-19T10:46:32.985Z,39.88
2023-02-19T10:49:05.472Z,41.01
2023-02-19T10:51:42.561Z,41.86
2023-02-19T10:54:26.828Z,43.02
2023-02-19T10:56:55.143Z,43.06
2023-02-19T10:59:26.130Z,43.40
2023-02-19T11:01:59.577Z,43.40
2023-02-19T11:04:34.118Z,43.59
2023-02-19T11:07:18.140Z,43.72
2023-02-19T11:09:52.953Z,43.59
2023-02-19T11:12:27.546Z,43.22
2023-02-19T11:14:56.573Z,42.40
2023-02-19T11:17:28.416Z,40.42
2023-02-19T11:20:00.582Z,39.86
2023-02-19T11:22:40.663Z,39.64
2023-02-19T11:25:15.246Z,39.93
2023-02-19T11:27:55.563Z,40.82
2023-02-19T11:30:45.817Z,42.23
2023-02-19T11:33:17.203Z,42.48
2023-02-19T11:35:47.380Z,42.63
2023-02-19T11:38:18.416Z,42.96
2023-02-19T11:41:30.595Z,43.44
2023-02-19T11:44:07.916Z,44.94
2023-02-19T11:46:54.883Z,45.91
2023-02-19T11:49:29.082Z,46.63
2023-02-19T11:52:23.871Z,46.60
2023-02-19T11:54:58.468Z,47.67
2023-02-19T11:57:51.288Z,48.39
2023-02-19T12:00:31.478Z,48.96
2023-02-19T12:03:02.404Z,49.24
2023-02-19T12:05:59.985Z,49.72
2023-02-19T12:08:46.720Z,50.58
2023-02-19T12:11:20.946Z,50.79
2023-02-19T12:14:04.296Z,51.05
2023-02-19T12:16:52.476Z,51.24
2023-02-19T12:19:39.609Z,51.94
2023-02-19T12:22:25.964Z,53.64
2023-02-19T12:25:11.643Z,55.84
2023-02-19T12:28:18.032Z,56.92
2023-02-19T12:30:52.197Z,58.90
2023-02-19T12:33:38.856Z,59.14
2023-02-19T12:36:19.316Z,60.62
2023-02-19T12:39:07.798Z,62.19
2023-02-19T12:41:53.428Z,63.44
2023-02-19T12:44:36.135Z,63.37
2023-02-19T12:47:06.817Z,64.32
2023-02-19T12:49:44.095Z,64.48
2023-02-19T12:52:25.948Z,65.75
2023-02-19T12:54:58.208Z,65.38
2023-02-19T12:57:31.865Z,66.47
2023-02-19T13:00:07.529Z,65.55
2023-02-19T13:02:44.543Z,65.64
2023-02-19T13:05:39.206Z,65.88
2023-02-19T13:08:25.670Z,67.28
2023-02-19T13:11:05.573Z,68.28
2023-02-19T13:13:42.136Z,68.42
2023-02-19T13:16:18.443Z,68.82
2023-02-19T13:18:49.114Z,69.17
2023-02-19T13:21:39.266Z,68.65
2023-02-19T13:24:16.982Z,68.46
2023-02-19T13:26:58.632Z,69.64
2023-02-19T13:29:51.342Z,69.41
2023-02-19T13:32:58.692Z,69.52
2023-02-19T13:35:26.782Z,69.45
2023-02-19T13:38:00.121Z,68.84
2023-02-19T13:40:32.775Z,68.69
2023-02-19T13:43:05.471Z,68.78
2023-02-19T13:45:39.610Z,67.85
2023-02-19T13:48:31.576Z,67.43
2023-02-19T13:51:21.766Z,68.10
2023-02-19T13:53:56.877Z,68.32
2023-02-19T13:56:34.392Z,68.36
2023-02-19T13:59:21.905Z,68.35
2023-02-19T14:01:52.563Z,67.67
2023-02-19T14:04:22.386Z,67.16
2023-02-19T14:07:05.843Z,66.92
2023-02-19T14:09:45.869Z,67.17
2023-02-19T14:12:15.899Z,67.24
2023-02-19T14:14:54.882Z,66.76
2023-02-19T14:17:26.071Z,66.56
2023-02-19T14:19:54.233Z,66.36
2023-02-19T14:22:47.725Z,66.44
2023-02-19T14:25:31.429Z,66.62
2023-02-19T14:28:15.333Z,66.70
2023-02-19T14:30:59.296Z,66.94
2023-02-19T14:33:31.401Z,67.16
2023-02-19T14:36:39.901Z,67.75
2023-02-19T14:39:27.757Z,67.87
2023-02-19T14:42:01.760Z,68.05
2023-02-19T14:44:45.218Z,68.00
2023-02-19T14:47:23.180Z,67.89
2023-02-19T14:49:58.536Z,67.36
2023-02-19T14:52:40.350Z,67.10
2023-02-19T14:55:14.943Z,67.12
2023-02-19T14:57:46.138Z,67.18
2023-02-19T15:00:28.302Z,67.27
2023-02-19T15:02:59.671Z,66.88
2023-02-19T15:05:31.072Z,66.62
2023-02-19T15:08:03.423Z,66.87
2023-02-19T15:10:33.157Z,67.02
2023-02-19T15:13:05.041Z,67.34
2023-02-19T15:15:37.609Z,67.30
2023-02-19T15:18:06.723Z,67.32
2023-02-19T15:20:37.236Z,66.95
2023-02-19T15:23:07.723Z,67.26
2023-02-19T15:25:38.991Z,68.43
2023-02-19T15:28:34.455Z,71.21
2023-02-19T15:31:03.405Z,74.56
2023-02-19T15:33:32.032Z,75.35
2023-02-19T15:36:04.622Z,76.14
2023-02-19T15:38:34.102Z,78.03
2023-02-19T15:41:02.959Z,78.11
2023-02-19T15:43:33.792Z,78.21
2023-02-19T15:46:11.549Z,77.36
2023-02-19T15:48:49.072Z,77.69
2023-02-19T15:51:46.304Z,78.15
2023-02-19T15:54:27.521Z,78.81
2023-02-19T15:57:01.074Z,79.19
2023-02-19T15:59:44.972Z,79.04
2023-02-19T16:02:14.491Z,79.08
2023-02-19T16:04:44.671Z,79.19
2023-02-19T16:07:27.269Z,79.60
2023-02-19T16:10:20.607Z,79.48
2023-02-19T16:13:23.374Z,79.57
2023-02-19T16:16:07.596Z,80.24
2023-02-19T16:18:36.073Z,80.18
2023-02-19T16:21:10.037Z,79.72
2023-02-19T16:23:43.329Z,79.50
2023-02-19T16:26:11.618Z,79.31
2023-02-19T16:28:42.227Z,79.16
2023-02-19T16:31:13.439Z,79.61
2023-02-19T16:33:48.652Z,79.38
2023-02-19T16:36:41.667Z,79.14
2023-02-19T16:39:11.513Z,79.04
2023-02-19T16:41:39.728Z,79.70
2023-02-19T16:44:31.180Z,79.87
2023-02-19T16:47:07.216Z,80.62
2023-02-19T16:49:37.243Z,80.31
2023-02-19T16:52:05.699Z,79.87
2023-02-19T16:54:33.793Z,79.54
2023-02-19T16:57:01.927Z,79.23
2023-02-19T16:59:30.402Z,79.03
2023-02-19T17:01:58.537Z,78.90
2023-02-19T17:04:26.698Z,78.99
2023-02-19T17:06:54.857Z,78.81
2023-02-19T17:09:23.047Z,79.11
2023-02-19T17:11:51.164Z,79.00
2023-02-19T17:14:20.848Z,78.71
2023-02-19T17:16:49.020Z,78.33
2023-02-19T17:19:19.893Z,78.03
2023-02-19T17:21:48.396Z,78.28
2023-02-19T17:24:17.475Z,78.87
2023-02-19T17:26:45.638Z,78.49
2023-02-19T17:29:15.625Z,78.19
2023-02-19T17:31:45.202Z,78.03
2023-02-19T17:34:13.495Z,77.79
2023-02-19T17:36:44.915Z,77.95
2023-02-19T17:39:17.748Z,77.95
2023-02-19T17:41:45.919Z,77.75
2023-02-19T17:44:13.992Z,77.91
2023-02-19T17:46:42.981Z,77.95
2023-02-19T17:49:13.010Z,77.89
2023-02-19T17:51:41.286Z,77.70
2023-02-19T17:54:09.603Z,77.49
2023-02-19T17:56:40.159Z,77.48
2023-02-19T17:59:08.201Z,77.50
2023-02-19T18:01:36.995Z,77.48
2023-02-19T18:04:06.153Z,77.42
2023-02-19T18:06:35.229Z,77.93
2023-02-19T18:09:03.816Z,78.31
2023-02-19T18:11:32.041Z,78.38
2023-02-19T18:14:00.631Z,78.47
2023-02-19T18:16:28.791Z,78.81
2023-02-19T18:18:59.894Z,78.93
2023-02-19T18:21:28.022Z,79.12
2023-02-19T18:23:56.255Z,78.91
2023-02-19T18:26:24.844Z,79.31
2023-02-19T18:28:52.992Z,79.53
2023-02-19T18:31:21.451Z,80.06
2023-02-19T18:33:50.117Z,80.36
2023-02-19T18:36:18.259Z,81.33
2023-02-19T18:38:46.709Z,81.56
2023-02-19T18:41:19.925Z,82.01
2023-02-19T18:43:48.836Z,81.64
2023-02-19T18:46:21.705Z,80.73
2023-02-19T18:48:49.937Z,79.88
2023-02-19T18:51:18.027Z,79.60
2023-02-19T18:53:46.232Z,79.28
2023-02-19T18:56:14.369Z,79.06
2023-02-19T18:58:42.705Z,79.53
2023-02-19T19:01:14.209Z,80.03
2023-02-19T19:03:45.335Z,80.43
2023-02-19T19:06:13.625Z,80.15
2023-02-19T19:08:43.800Z,80.32
2023-02-19T19:11:12.149Z,80.78
2023-02-19T19:13:40.468Z,80.59
2023-02-19T19:16:08.739Z,80.76
2023-02-19T19:18:38.329Z,81.13
2023-02-19T19:21:07.067Z,81.46
2023-02-19T19:23:36.653Z,82.58
2023-02-19T19:26:06.344Z,81.60
2023-02-19T19:28:34.519Z,80.29
2023-02-19T19:31:03.318Z,80.92
2023-02-19T19:33:31.480Z,82.30
2023-02-19T19:35:59.697Z,82.97
2023-02-19T19:38:27.780Z,82.93
2023-02-19T19:40:55.964Z,83.35
2023-02-19T19:43:27.878Z,83.74
2023-02-19T19:45:56.935Z,84.15
2023-02-19T19:48:27.638Z,85.09
2023-02-19T19:50:57.201Z,85.51
2023-02-19T19:53:25.743Z,86.16
2023-02-19T19:55:54.099Z,86.76
2023-02-19T19:58:24.801Z,86.88
2023-02-19T20:00:53.944Z,87.49
2023-02-19T20:03:22.598Z,87.33
2023-02-19T20:05:51.361Z,86.88
2023-02-19T20:08:20.117Z,86.34
2023-02-19T20:10:48.649Z,85.87
2023-02-19T20:13:24.547Z,86.40
2023-02-19T20:15:53.066Z,86.23
2023-02-19T20:18:21.727Z,85.24
2023-02-19T20:20:50.006Z,84.63
2023-02-19T20:23:18.338Z,84.08
2023-02-19T20:25:46.496Z,83.80
2023-02-19T20:28:14.738Z,82.84
2023-02-19T20:30:43.869Z,82.34
2023-02-19T20:33:12.132Z,81.76
2023-02-19T20:35:40.746Z,81.27
2023-02-19T20:38:08.927Z,81.26
2023-02-19T20:40:37.139Z,81.42
2023-02-19T20:43:05.349Z,80.62
2023-02-19T20:45:33.663Z,80.50
2023-02-19T20:48:04.110Z,80.51
2023-02-19T20:50:32.460Z,80.61
2023-02-19T20:53:03.223Z,80.43
2023-02-19T20:55:32.119Z,81.20
2023-02-19T20:58:00.227Z,81.66
2023-02-19T21:00:28.453Z,81.19
2023-02-19T21:02:56.579Z,81.29
2023-02-19T21:05:24.726Z,81.27
2023-02-19T21:07:52.824Z,81.90
2023-02-19T21:10:21.065Z,82.45
2023-02-19T21:12:50.742Z,82.88
2023-02-19T21:15:20.043Z,83.27
2023-02-19T21:17:48.256Z,83.03
2023-02-19T21:20:20.094Z,82.51
2023-02-19T21:22:48.190Z,82.56
2023-02-19T21:25:16.247Z,83.04
2023-02-19T21:27:44.605Z,82.92
2023-02-19T21:30:12.951Z,81.67
2023-02-19T21:32:41.220Z,82.55
2023-02-19T21:35:09.299Z,83.10
2023-02-19T21:37:41.866Z,83.07
2023-02-19T21:40:12.064Z,81.42
2023-02-19T21:42:40.268Z,82.11
2023-02-19T21:45:08.484Z,82.57
2023-02-19T21:47:36.679Z,82.64
2023-02-19T21:50:05.513Z,82.93
2023-02-19T21:52:33.717Z,82.78
2023-02-19T21:55:01.865Z,82.86
2023-02-19T21:57:30.072Z,82.76
2023-02-19T21:59:58.239Z,82.91
2023-02-19T22:02:26.348Z,83.23
2023-02-19T22:04:55.408Z,83.49
2023-02-19T22:07:24.960Z,83.45
2023-02-19T22:09:53.262Z,83.50
2023-02-19T22:12:21.552Z,83.30
2023-02-19T22:14:49.855Z,83.40
2023-02-19T22:17:17.945Z,83.44
2023-02-19T22:19:46.067Z,83.50
2023-02-19T22:22:14.593Z,82.94
2023-02-19T22:24:42.714Z,83.33
2023-02-19T22:27:10.991Z,82.62
2023-02-19T22:29:39.116Z,82.51
2023-02-19T22:32:07.543Z,82.05
2023-02-19T22:34:42.805Z,81.51
2023-02-19T22:37:10.950Z,81.81
2023-02-19T22:39:39.070Z,81.96
2023-02-19T22:42:07.367Z,82.00
2023-02-19T22:44:35.575Z,82.53
2023-02-19T22:47:03.735Z,82.16
2023-02-19T22:49:32.006Z,81.36
2023-02-19T22:52:07.482Z,81.02
2023-02-19T22:54:36.469Z,81.11
2023-02-19T22:57:05.180Z,80.62
2023-02-19T22:59:33.338Z,80.43
2023-02-19T23:02:01.444Z,80.02
2023-02-19T23:04:29.737Z,79.05
2023-02-19T23:06:57.921Z,78.82
2023-02-19T23:09:28.706Z,79.26
2023-02-19T23:12:08.972Z,79.18
2023-02-19T23:14:37.899Z,79.49
2023-02-19T23:17:06.070Z,79.30
2023-02-19T23:19:34.262Z,79.36
2023-02-19T23:22:02.720Z,79.26
2023-02-19T23:24:31.068Z,79.03
2023-02-19T23:27:00.668Z,79.07
2023-02-19T23:29:30.905Z,78.09
2023-02-19T23:32:00.536Z,77.29
2023-02-19T23:34:29.065Z,77.28
2023-02-19T23:36:59.705Z,76.44
2023-02-19T23:39:28.570Z,75.88
2023-02-19T23:41:57.957Z,76.13
2023-02-19T23:44:26.618Z,75.69
2023-02-19T23:46:55.168Z,75.19
2023-02-19T23:49:23.688Z,75.10
2023-02-19T23:51:51.943Z,75.22
2023-02-19T23:54:20.163Z,75.28
2023-02-19T23:56:48.277Z,75.19
2023-02-19T23:59:16.581Z,75.16
